createdAt,value
2022-12-01T00:02:08.899Z,100955.31
2022-12-01T00:05:12.045Z,100958.50
2022-12-01T00:08:14.875Z,100963.50
2022-12-01T00:11:17.880Z,100971.69
2022-12-01T00:14:20.361Z,100977.91
2022-12-01T00:17:23.439Z,100962.53
2022-12-01T00:20:26.133Z,100970.41
2022-12-01T00:23:29.204Z,100976.66
2022-12-01T00:26:31.678Z,100965.53
2022-12-01T00:29:34.701Z,100972.50
2022-12-01T00:32:37.668Z,100971.31
2022-12-01T00:35:40.716Z,100968.31
2022-12-01T00:38:43.258Z,100972.00
2022-12-01T00:41:46.280Z,100973.50
2022-12-01T00:44:48.962Z,100974.84
2022-12-01T00:47:51.990Z,100980.59
2022-12-01T00:50:55.991Z,100987.38
2022-12-01T00:53:59.337Z,100991.47
2022-12-01T00:57:01.822Z,100976.31
2022-12-01T01:00:05.953Z,100988.94
2022-12-01T01:03:08.903Z,100990.53
2022-12-01T01:06:12.220Z,100988.63
2022-12-01T01:09:15.940Z,100986.94
2022-12-01T01:12:18.950Z,100991.00
2022-12-01T01:15:21.864Z,100983.13
2022-12-01T01:18:24.941Z,100981.03
2022-12-01T01:21:27.940Z,100982.53
2022-12-01T01:24:30.998Z,100983.22
2022-12-01T01:27:34.811Z,100979.53
2022-12-01T01:30:40.384Z,100981.28
2022-12-01T01:33:43.564Z,100981.38
2022-12-01T01:36:46.636Z,100979.47
2022-12-01T01:39:49.300Z,100980.56
2022-12-01T01:42:52.532Z,100970.78
2022-12-01T01:45:55.028Z,100975.47
2022-12-01T01:49:01.997Z,100973.69
2022-12-01T01:52:04.970Z,100985.41
2022-12-01T01:55:10.124Z,100980.47
2022-12-01T01:58:12.751Z,100993.22
2022-12-01T02:01:16.282Z,100975.72
2022-12-01T02:04:20.615Z,100978.06
2022-12-01T02:07:23.421Z,100975.72
2022-12-01T02:10:40.299Z,100971.12
2022-12-01T02:13:55.361Z,100970.91
2022-12-01T02:17:29.205Z,100966.53
2022-12-01T02:20:53.258Z,100969.09
2022-12-01T02:24:08.863Z,100969.09
2022-12-01T02:27:31.549Z,100970.81
2022-12-01T02:30:40.648Z,100970.47
2022-12-01T02:34:18.691Z,100971.63
2022-12-01T02:37:33.257Z,100974.31
2022-12-01T02:40:53.027Z,100967.03
2022-12-01T02:44:20.690Z,100971.63
2022-12-01T02:47:23.890Z,100972.50
2022-12-01T02:50:29.634Z,100974.31
2022-12-01T02:53:32.491Z,100954.22
2022-12-01T02:56:35.273Z,100965.34
2022-12-01T02:59:38.241Z,100955.78
2022-12-01T03:02:55.560Z,100962.66
2022-12-01T03:05:58.390Z,100958.25
2022-12-01T03:09:09.281Z,100962.41
2022-12-01T03:12:35.601Z,100957.03
2022-12-01T03:15:41.084Z,100965.47
2022-12-01T03:19:13.652Z,100966.47
2022-12-01T03:22:36.534Z,100966.94
2022-12-01T03:25:45.729Z,100965.25
2022-12-01T03:28:56.995Z,100963.34
2022-12-01T03:32:04.933Z,100960.88
2022-12-01T03:35:14.525Z,100957.41
2022-12-01T03:38:29.251Z,100956.03
2022-12-01T03:41:50.625Z,100945.16
2022-12-01T03:45:00.919Z,100950.88
2022-12-01T03:48:03.941Z,100944.81
2022-12-01T03:51:18.048Z,100948.28
2022-12-01T03:54:45.375Z,100949.88
2022-12-01T03:58:00.441Z,100946.69
2022-12-01T04:01:04.656Z,100950.31
2022-12-01T04:04:11.824Z,100951.75
2022-12-01T04:07:14.870Z,100944.94
2022-12-01T04:10:18.216Z,100944.12
2022-12-01T04:13:23.500Z,100949.97
2022-12-01T04:16:26.612Z,100947.50
2022-12-01T04:19:29.180Z,100947.50
2022-12-01T04:22:33.214Z,100949.53
2022-12-01T04:25:35.830Z,100937.88
2022-12-01T04:28:38.745Z,100942.47
2022-12-01T04:31:41.870Z,100939.09
2022-12-01T04:34:44.999Z,100938.09
2022-12-01T04:37:47.317Z,100936.41
2022-12-01T04:40:50.351Z,100941.03
2022-12-01T04:43:54.655Z,100945.63
2022-12-01T04:46:57.827Z,100955.31
2022-12-01T04:50:00.604Z,100960.34
2022-12-01T04:53:04.646Z,100969.88
2022-12-01T04:56:07.257Z,100972.56
2022-12-01T04:59:10.410Z,100977.28
2022-12-01T05:02:12.940Z,100973.47
2022-12-01T05:05:16.219Z,100969.66
2022-12-01T05:08:18.723Z,100962.59
2022-12-01T05:11:22.359Z,100957.97
2022-12-01T05:14:24.971Z,100954.97
2022-12-01T05:17:35.516Z,100970.78
2022-12-01T05:20:57.617Z,100967.53
2022-12-01T05:24:00.627Z,100966.66
2022-12-01T05:27:03.143Z,100967.53
2022-12-01T05:30:06.845Z,100957.09
2022-12-01T05:33:09.278Z,100969.00
2022-12-01T05:36:12.330Z,100960.13
2022-12-01T05:39:14.872Z,100968.53
2022-12-01T05:42:17.917Z,100968.31
2022-12-01T05:45:20.394Z,100962.03
2022-12-01T05:48:23.615Z,100967.66
2022-12-01T05:51:26.121Z,100968.53
2022-12-01T05:54:30.459Z,100963.59
2022-12-01T05:57:33.838Z,100969.41
2022-12-01T06:00:43.875Z,100972.13
2022-12-01T06:03:48.401Z,100975.03
2022-12-01T06:06:51.390Z,100977.72
2022-12-01T06:09:54.493Z,100982.19
2022-12-01T06:12:57.232Z,100984.47
2022-12-01T06:16:03.026Z,100996.78
2022-12-01T06:19:05.807Z,100985.22
2022-12-01T06:22:08.524Z,100991.28
2022-12-01T06:25:11.528Z,100990.75
2022-12-01T06:28:14.665Z,100990.06
2022-12-01T06:31:17.481Z,100990.75
2022-12-01T06:34:20.266Z,100994.09
2022-12-01T06:37:23.074Z,100995.78
2022-12-01T06:40:26.175Z,100996.44
2022-12-01T06:43:29.739Z,100994.91
2022-12-01T06:46:32.882Z,100984.34
2022-12-01T06:49:37.986Z,100984.34
2022-12-01T06:52:40.710Z,100988.41
2022-12-01T06:55:43.460Z,100989.75
2022-12-01T06:58:46.590Z,100994.34
2022-12-01T07:01:49.669Z,100981.78
2022-12-01T07:04:52.564Z,100986.16
2022-12-01T07:07:59.490Z,100984.72
2022-12-01T07:11:08.955Z,100986.06
2022-12-01T07:14:26.757Z,100984.25
2022-12-01T07:17:30.387Z,100989.06
2022-12-01T07:20:33.142Z,100991.88
2022-12-01T07:23:36.540Z,100999.72
2022-12-01T07:26:41.172Z,100992.16
2022-12-01T07:29:44.080Z,100988.66
2022-12-01T07:32:46.827Z,100997.31
2022-12-01T07:35:49.632Z,100994.81
2022-12-01T07:38:52.341Z,100992.63
2022-12-01T07:41:55.254Z,101002.25
2022-12-01T07:44:58.021Z,101000.69
2022-12-01T07:48:00.827Z,100998.84
2022-12-01T07:51:07.950Z,100996.06
2022-12-01T07:54:14.299Z,100997.94
2022-12-01T07:57:18.245Z,100995.22
2022-12-01T08:00:21.422Z,100997.59
2022-12-01T08:03:24.478Z,101001.88
2022-12-01T08:06:29.044Z,101004.97
2022-12-01T08:09:34.671Z,101003.28
2022-12-01T08:12:37.388Z,100996.37
2022-12-01T08:15:40.509Z,101001.78
2022-12-01T08:18:43.811Z,100995.22
2022-12-01T08:21:46.996Z,100992.03
2022-12-01T08:24:49.491Z,100986.84
2022-12-01T08:27:52.587Z,100979.56
2022-12-01T08:30:55.363Z,100979.97
2022-12-01T08:33:58.313Z,100977.47
2022-12-01T08:37:00.831Z,100983.81
2022-12-01T08:40:03.993Z,100986.66
2022-12-01T08:43:06.548Z,100985.44
2022-12-01T08:46:09.772Z,100983.97
2022-12-01T08:49:12.319Z,100991.66
2022-12-01T08:52:15.463Z,100978.25
2022-12-01T08:55:18.929Z,100973.53
2022-12-01T08:58:22.025Z,100972.16
2022-12-01T09:01:25.976Z,100974.75
2022-12-01T09:04:29.464Z,100969.72
2022-12-01T09:07:33.149Z,100974.03
2022-12-01T09:10:36.254Z,100973.09
2022-12-01T09:13:40.139Z,100973.22
2022-12-01T09:16:44.897Z,100970.47
2022-12-01T09:19:47.752Z,100970.75
2022-12-01T09:22:51.369Z,100966.47
2022-12-01T09:25:53.952Z,100956.44
2022-12-01T09:28:59.938Z,100957.47
2022-12-01T09:32:02.732Z,100952.59
2022-12-01T09:35:05.917Z,100951.87
2022-12-01T09:38:08.546Z,100947.22
2022-12-01T09:41:19.166Z,100943.19
2022-12-01T09:44:30.692Z,100945.13
2022-12-01T09:47:37.611Z,100945.47
2022-12-01T09:50:40.519Z,100938.34
2022-12-01T09:53:45.010Z,100939.44
2022-12-01T09:56:53.139Z,100944.81
2022-12-01T09:59:58.207Z,100943.81
2022-12-01T10:03:22.023Z,100929.75
2022-12-01T10:06:35.433Z,100929.75
2022-12-01T10:09:43.106Z,100929.72
2022-12-01T10:12:48.607Z,100926.22
2022-12-01T10:15:54.088Z,100921.81
2022-12-01T10:19:08.927Z,100921.72
2022-12-01T10:22:44.384Z,100924.09
2022-12-01T10:25:59.961Z,100916.91
2022-12-01T10:29:45.065Z,100916.09
2022-12-01T10:32:56.261Z,100912.88
2022-12-01T10:35:58.990Z,100902.31
2022-12-01T10:39:06.787Z,100906.75
2022-12-01T10:42:39.736Z,100907.38
2022-12-01T10:45:45.026Z,100904.56
2022-12-01T10:48:56.593Z,100888.03
2022-12-01T10:51:59.909Z,100890.28
2022-12-01T10:55:04.998Z,100883.47
2022-12-01T10:58:19.281Z,100877.81
2022-12-01T11:01:39.753Z,100879.41
2022-12-01T11:04:46.626Z,100874.44
2022-12-01T11:07:49.923Z,100879.66
2022-12-01T11:10:53.091Z,100876.12
2022-12-01T11:13:58.137Z,100868.53
2022-12-01T11:17:33.675Z,100860.84
2022-12-01T11:20:41.059Z,100853.28
2022-12-01T11:23:49.242Z,100851.44
2022-12-01T11:26:51.857Z,100851.28
2022-12-01T11:29:57.720Z,100849.81
2022-12-01T11:33:03.362Z,100849.97
2022-12-01T11:36:11.825Z,100845.47
2022-12-01T11:39:34.189Z,100848.88
2022-12-01T11:42:40.304Z,100851.78
2022-12-01T11:45:45.037Z,100847.25
2022-12-01T11:48:58.532Z,100839.69
2022-12-01T11:52:24.344Z,100837.50
2022-12-01T11:55:29.764Z,100838.56
2022-12-01T11:58:32.305Z,100840.56
2022-12-01T12:02:03.128Z,100834.63
2022-12-01T12:05:37.648Z,100839.12
2022-12-01T12:09:13.177Z,100825.66
2022-12-01T12:12:21.925Z,100824.81
2022-12-01T12:19:00.323Z,100827.03
2022-12-01T12:22:18.103Z,100830.59
2022-12-01T12:25:53.036Z,100828.56
2022-12-01T12:29:43.807Z,100824.09
2022-12-01T12:33:12.599Z,100825.19
2022-12-01T12:36:46.290Z,100820.84
2022-12-01T12:39:49.378Z,100828.00
2022-12-01T12:43:14.304Z,100822.66
2022-12-01T12:46:27.587Z,100828.81
2022-12-01T12:49:54.891Z,100826.13
2022-12-01T12:53:04.682Z,100824.44
2022-12-01T12:56:12.526Z,100822.53
2022-12-01T12:59:31.713Z,100822.44
2022-12-01T13:02:38.409Z,100819.06
2022-12-01T13:05:45.129Z,100835.00
2022-12-01T13:09:10.358Z,100831.50
2022-12-01T13:12:20.007Z,100818.19
2022-12-01T13:15:23.117Z,100815.59
2022-12-01T13:18:28.359Z,100818.06
2022-12-01T13:21:37.372Z,100825.91
2022-12-01T13:24:41.095Z,100829.22
2022-12-01T13:27:45.734Z,100831.19
2022-12-01T13:31:05.848Z,100829.94
2022-12-01T13:34:20.834Z,100829.31
2022-12-01T13:37:38.788Z,100833.59
2022-12-01T13:40:41.652Z,100826.47
2022-12-01T13:43:56.733Z,100833.22
2022-12-01T13:47:05.315Z,100834.97
2022-12-01T13:50:39.192Z,100830.69
2022-12-01T13:54:27.030Z,100837.41
2022-12-01T13:57:32.535Z,100839.41
2022-12-01T14:00:35.593Z,100834.91
2022-12-01T14:03:40.728Z,100836.94
2022-12-01T14:06:50.159Z,100835.25
2022-12-01T14:09:57.631Z,100840.63
2022-12-01T14:13:06.015Z,100841.72
2022-12-01T14:16:09.724Z,100837.06
2022-12-01T14:19:30.382Z,100835.84
2022-12-01T14:22:37.576Z,100827.63
2022-12-01T14:25:41.530Z,100831.34
2022-12-01T14:28:59.776Z,100830.22
2022-12-01T14:32:04.404Z,100827.13
2022-12-01T14:35:11.977Z,100823.09
2022-12-01T14:38:15.217Z,100832.16
2022-12-01T14:41:25.988Z,100836.19
2022-12-01T14:44:33.355Z,100837.28
2022-12-01T14:47:46.799Z,100828.78
2022-12-01T14:50:53.538Z,100838.19
2022-12-01T14:53:58.603Z,100834.19
2022-12-01T14:57:06.901Z,100835.81
2022-12-01T15:00:21.766Z,100840.56
2022-12-01T15:03:30.509Z,100845.16
2022-12-01T15:06:36.646Z,100842.16
2022-12-01T15:09:58.905Z,100844.84
2022-12-01T15:13:24.844Z,100849.06
2022-12-01T15:16:32.786Z,100838.41
2022-12-01T15:19:41.255Z,100846.78
2022-12-01T15:22:44.112Z,100843.13
2022-12-01T15:25:46.987Z,100838.47
2022-12-01T15:28:50.554Z,100844.94
2022-12-01T15:31:57.015Z,100847.13
2022-12-01T15:35:05.429Z,100852.94
2022-12-01T15:38:20.895Z,100846.59
2022-12-01T15:41:29.335Z,100841.31
2022-12-01T15:44:36.322Z,100838.66
2022-12-01T15:47:45.583Z,100845.28
2022-12-01T15:51:01.143Z,100835.16
2022-12-01T15:54:04.179Z,100850.66
2022-12-01T15:57:07.315Z,100849.75
2022-12-01T16:00:19.985Z,100848.78
2022-12-01T16:03:22.862Z,100844.94
2022-12-01T16:06:39.359Z,100846.09
2022-12-01T16:10:00.269Z,100854.41
2022-12-01T16:13:40.424Z,100854.19
2022-12-01T16:16:47.274Z,100845.75
2022-12-01T16:20:24.364Z,100844.59
2022-12-01T16:23:27.261Z,100851.22
2022-12-01T16:26:31.806Z,100851.03
2022-12-01T16:29:48.123Z,100847.37
2022-12-01T16:32:51.486Z,100847.28
2022-12-01T16:35:54.556Z,100850.75
2022-12-01T16:38:57.420Z,100848.72
2022-12-01T16:42:00.828Z,100851.31
2022-12-01T16:45:04.264Z,100846.91
2022-12-01T16:48:09.418Z,100849.41
2022-12-01T16:51:14.586Z,100857.47
2022-12-01T16:54:17.491Z,100845.81
2022-12-01T16:57:20.216Z,100846.38
2022-12-01T17:00:23.522Z,100852.38
2022-12-01T17:03:27.376Z,100847.44
2022-12-01T17:06:30.095Z,100852.00
2022-12-01T17:09:33.101Z,100857.19
2022-12-01T17:12:36.238Z,100856.19
2022-12-01T17:15:43.278Z,100866.38
2022-12-01T17:18:46.111Z,100870.16
2022-12-01T17:21:48.936Z,100864.81
2022-12-01T17:24:52.009Z,100862.12
2022-12-01T17:27:55.398Z,100868.56
2022-12-01T17:31:01.795Z,100868.75
2022-12-01T17:34:04.725Z,100865.44
2022-12-01T17:37:08.072Z,100868.47
2022-12-01T17:40:14.772Z,100869.44
2022-12-01T17:43:17.609Z,100867.50
2022-12-01T17:46:20.493Z,100878.56
2022-12-01T17:49:23.267Z,100874.06
2022-12-01T17:52:28.555Z,100874.72
2022-12-01T17:55:31.486Z,100874.44
2022-12-01T17:58:34.553Z,100876.03
2022-12-01T18:01:37.565Z,100872.38
2022-12-01T18:04:40.858Z,100874.97
2022-12-01T18:07:43.439Z,100878.16
2022-12-01T18:10:46.546Z,100877.81
2022-12-01T18:13:50.717Z,100878.13
2022-12-01T18:16:54.979Z,100880.53
2022-12-01T18:19:57.487Z,100878.44
2022-12-01T18:23:00.577Z,100882.75
2022-12-01T18:26:15.180Z,100878.25
2022-12-01T18:29:26.017Z,100881.09
2022-12-01T18:32:28.835Z,100875.41
2022-12-01T18:35:32.211Z,100874.50
2022-12-01T18:38:34.806Z,100886.47
2022-12-01T18:41:38.474Z,100880.41
2022-12-01T18:44:42.398Z,100893.94
2022-12-01T18:47:45.746Z,100892.06
2022-12-01T18:50:48.642Z,100886.78
2022-12-01T18:54:00.737Z,100886.06
2022-12-01T18:57:03.664Z,100886.06
2022-12-01T19:00:08.086Z,100886.16
2022-12-01T19:03:10.657Z,100889.59
2022-12-01T19:06:13.876Z,100888.50
2022-12-01T19:09:16.620Z,100885.91
2022-12-01T19:12:19.668Z,100886.78
2022-12-01T19:15:22.797Z,100892.38
2022-12-01T19:18:25.931Z,100890.75
2022-12-01T19:21:29.587Z,100899.13
2022-12-01T19:24:32.884Z,100893.06
2022-12-01T19:27:35.427Z,100900.03
2022-12-01T19:30:41.819Z,100904.81
2022-12-01T19:33:47.255Z,100896.75
2022-12-01T19:36:53.926Z,100893.72
2022-12-01T19:39:56.490Z,100895.78
2022-12-01T19:42:59.611Z,100891.56
2022-12-01T19:46:11.505Z,100891.56
2022-12-01T19:49:14.740Z,100889.81
2022-12-01T19:52:17.345Z,100900.06
2022-12-01T19:55:20.498Z,100900.97
2022-12-01T19:58:24.947Z,100896.56
2022-12-01T20:01:28.773Z,100902.38
2022-12-01T20:04:32.000Z,100905.53
2022-12-01T20:07:35.402Z,100900.47
2022-12-01T20:10:38.068Z,100902.94
2022-12-01T20:13:43.151Z,100899.47
2022-12-01T20:16:45.975Z,100901.66
2022-12-01T20:19:48.824Z,100906.84
2022-12-01T20:22:51.562Z,100910.94
2022-12-01T20:25:54.560Z,100907.25
2022-12-01T20:29:01.395Z,100910.38
2022-12-01T20:32:04.779Z,100906.75
2022-12-01T20:35:07.853Z,100911.87
2022-12-01T20:38:11.966Z,100904.78
2022-12-01T20:41:18.680Z,100912.16
2022-12-01T20:44:21.897Z,100915.31
2022-12-01T20:47:24.850Z,100918.37
2022-12-01T20:50:27.678Z,100918.87
2022-12-01T20:53:30.800Z,100912.00
2022-12-01T20:56:36.561Z,100925.03
2022-12-01T20:59:39.407Z,100922.84
2022-12-01T21:02:43.746Z,100927.88
2022-12-01T21:05:46.640Z,100930.78
2022-12-01T21:08:50.418Z,100932.84
2022-12-01T21:12:20.906Z,100934.03
2022-12-01T21:15:29.839Z,100932.84
2022-12-01T21:18:49.861Z,100938.41
2022-12-01T21:21:52.701Z,100942.88
2022-12-01T21:25:11.373Z,100945.69
2022-12-01T21:28:23.737Z,100935.09
2022-12-01T21:31:27.183Z,100945.13
2022-12-01T21:34:29.926Z,100946.81
2022-12-01T21:37:32.688Z,100944.72
2022-12-01T21:40:35.687Z,100944.63
2022-12-01T21:43:38.800Z,100944.12
2022-12-01T21:46:42.500Z,100955.56
2022-12-01T21:49:45.849Z,100945.47
2022-12-01T21:52:49.286Z,100946.09
2022-12-01T21:55:51.965Z,100942.44
2022-12-01T21:59:06.723Z,100944.22
2022-12-01T22:02:31.084Z,100958.44
2022-12-01T22:05:41.565Z,100955.66
2022-12-01T22:08:46.681Z,100945.87
2022-12-01T22:11:53.936Z,100960.41
2022-12-01T22:15:01.992Z,100956.94
2022-12-01T22:18:19.823Z,100950.75
2022-12-01T22:21:22.331Z,100953.22
2022-12-01T22:24:53.268Z,100950.62
2022-12-01T22:28:00.046Z,100946.28
2022-12-01T22:31:11.809Z,100938.53
2022-12-01T22:34:16.626Z,100941.87
2022-12-01T22:37:22.604Z,100940.28
2022-12-01T22:40:28.170Z,100939.91
2022-12-01T22:43:44.835Z,100934.53
2022-12-01T22:46:47.999Z,100937.22
2022-12-01T22:49:51.329Z,100932.03
2022-12-01T22:52:59.246Z,100930.22
2022-12-01T22:56:07.745Z,100934.12
2022-12-01T22:59:22.224Z,100926.88
2022-12-01T23:02:33.147Z,100930.03
2022-12-01T23:05:35.899Z,100927.34
2022-12-01T23:08:39.001Z,100931.03
2022-12-01T23:11:49.435Z,100928.69
2022-12-01T23:14:56.529Z,100932.41
2022-12-01T23:18:20.188Z,100936.69
2022-12-01T23:21:24.364Z,100933.81
2022-12-01T23:24:29.740Z,100927.81
2022-12-01T23:27:37.635Z,100928.69
2022-12-01T23:30:41.233Z,100932.66
2022-12-01T23:33:44.233Z,100928.41
2022-12-01T23:36:50.071Z,100942.22
2022-12-01T23:39:56.317Z,100945.59
2022-12-01T23:43:10.126Z,100938.87
2022-12-01T23:46:19.114Z,100931.50
2022-12-01T23:49:30.035Z,100933.81
2022-12-01T23:52:36.554Z,100935.16
2022-12-01T23:55:39.578Z,100945.41
2022-12-01T23:58:44.680Z,100943.13
